Time;durP1;ratioP1;P1;durP2;ratioP2;P2;SDS_P1;SDS_P2;PMS_P1;PMS_P2;Temp;Humidity;BMP_temperature;BMP_pressure;BME280_temperature;BME280_humidity;BME280_pressure;Samples;Min_cycle;Max_cycle;Signal;HPM_P1;HPM_P2
2021/12/06 00:01:56;;;;;;;1.05;0.80;;;;;;;-6.90;71.55;98067.97;6245695;23;20118;-73
2021/12/06 00:04:26;;;;;;;1.45;0.70;;;;;;;-7.06;71.82;98071.19;6246998;23;20008;-71
2021/12/06 00:06:55;;;;;;;0.50;0.50;;;;;;;-7.25;72.19;98063.22;6246353;23;20007;-71
2021/12/06 00:09:24;;;;;;;0.50;0.50;;;;;;;-7.36;72.25;98072.19;6244412;23;20058;-74
2021/12/06 00:11:56;;;;;;;0.35;0.35;;;;;;;-7.51;72.49;98076.25;6245751;23;20074;-74
2021/12/06 00:14:27;;;;;;;0.50;0.50;;;;;;;-7.60;72.94;98086.75;6245524;23;20015;-73
2021/12/06 00:16:57;;;;;;;0.30;0.30;;;;;;;-7.63;72.57;98084.34;6245394;23;20008;-74
2021/12/06 00:19:23;;;;;;;0.55;0.50;;;;;;;-7.72;72.77;98085.19;6245514;23;20472;-71
2021/12/06 00:21:50;;;;;;;0.70;0.70;;;;;;;-7.79;72.84;98078.72;6245467;23;20018;-70
2021/12/06 00:24:16;;;;;;;0.47;0.40;;;;;;;-7.87;72.91;98076.75;6245316;23;20054;-71
2021/12/06 00:26:41;;;;;;;0.32;0.32;;;;;;;-7.98;72.70;98079.50;6245579;23;20012;-73
2021/12/06 00:29:08;;;;;;;0.40;0.40;;;;;;;-8.06;72.76;98074.03;6245109;23;20012;-68
2021/12/06 00:31:34;;;;;;;0.38;0.38;;;;;;;-8.09;72.84;98072.47;6245116;23;20016;-69
2021/12/06 00:34:05;;;;;;;0.40;0.40;;;;;;;-8.12;72.77;98070.06;6246546;23;20035;-73
2021/12/06 00:36:33;;;;;;;0.52;0.52;;;;;;;-8.20;72.74;98076.09;6219954;23;20019;-72
2021/12/06 00:39:02;;;;;;;0.47;0.47;;;;;;;-8.34;72.79;98074.59;6246784;23;20330;-73
2021/12/06 00:41:28;;;;;;;0.40;0.40;;;;;;;-8.41;73.05;98085.94;6245344;23;20008;-72
2021/12/06 00:43:54;;;;;;;0.75;0.75;;;;;;;-8.37;73.08;98092.69;6244880;23;20104;-74
2021/12/06 00:46:20;;;;;;;0.50;0.50;;;;;;;-8.28;72.63;98097.19;6245049;23;20004;-74
2021/12/06 00:48:46;;;;;;;0.30;0.30;;;;;;;-8.29;71.99;98096.38;6245642;23;20004;-76
2021/12/06 00:51:14;;;;;;;0.30;0.30;;;;;;;-8.33;72.22;98099.41;6245130;23;20062;-75
2021/12/06 00:53:40;;;;;;;0.40;0.40;;;;;;;-8.40;72.07;98099.13;6245915;23;20099;-83
2021/12/06 00:56:07;;;;;;;0.40;0.40;;;;;;;-8.56;71.79;98112.94;6247102;23;20094;-79
2021/12/06 00:58:33;;;;;;;0.40;0.40;;;;;;;-8.64;72.47;98110.09;6245409;23;20018;-73
2021/12/06 01:00:59;;;;;;;1.00;1.00;;;;;;;-8.68;72.32;98098.00;6245338;23;20091;-75
2021/12/06 01:03:32;;;;;;;0.30;0.30;;;;;;;-8.72;72.37;98113.38;6245263;23;20008;-76
2021/12/06 01:05:58;;;;;;;0.30;0.30;;;;;;;-8.77;72.00;98114.75;6245117;23;20004;-74
2021/12/06 01:08:24;;;;;;;0.32;0.32;;;;;;;-8.83;71.98;98130.28;6246510;23;20035;-74
2021/12/06 01:10:51;;;;;;;0.40;0.40;;;;;;;-8.93;71.93;98132.00;6247224;23;20023;-74
2021/12/06 01:13:17;;;;;;;0.40;0.40;;;;;;;-9.00;72.09;98131.66;6245863;23;20019;-75
2021/12/06 01:15:44;;;;;;;0.40;0.40;;;;;;;-9.03;72.23;98128.44;6244823;23;20039;-80
2021/12/06 01:18:13;;;;;;;0.35;0.35;;;;;;;-9.00;72.26;98138.81;6245126;23;20027;-81
2021/12/06 01:20:49;;;;;;;0.40;0.40;;;;;;;-8.95;71.99;98136.63;6245098;23;20020;-74
2021/12/06 01:23:17;;;;;;;0.52;0.52;;;;;;;-9.04;72.16;98140.03;6220176;23;20065;-76
2021/12/06 01:26:09;;;;;;;0.55;0.55;;;;;;;-9.12;72.03;98145.16;6245242;23;20061;-74
2021/12/06 01:31:14;;;;;;;0.40;0.40;;;;;;;-9.21;72.07;98134.31;6246326;23;20024;-76
2021/12/06 01:41:40;;;;;;;0.60;0.60;;;;;;;-9.29;71.96;98143.88;6250914;23;20014;-72
2021/12/06 01:44:24;;;;;;;0.70;0.70;;;;;;;-9.23;71.83;98146.03;6247271;23;20019;-75
2021/12/06 01:46:54;;;;;;;0.40;0.40;;;;;;;-9.26;71.99;98141.84;6246619;23;20090;-76
2021/12/06 01:49:22;;;;;;;0.45;0.45;;;;;;;-9.22;71.65;98147.72;6245665;23;20411;-76
2021/12/06 01:51:51;;;;;;;0.45;0.45;;;;;;;-9.23;71.71;98152.22;6245566;23;20051;-75
2021/12/06 01:54:18;;;;;;;0.55;0.55;;;;;;;-9.20;71.42;98162.59;6245714;23;20346;-76
2021/12/06 01:56:44;;;;;;;0.40;0.40;;;;;;;-9.17;71.45;98156.16;6245886;23;20008;-78
2021/12/06 01:59:11;;;;;;;0.30;0.30;;;;;;;-9.14;71.59;98158.59;6244953;23;20008;-76
2021/12/06 02:01:37;;;;;;;0.30;0.30;;;;;;;-9.11;71.39;98161.00;6243834;23;20083;-73
2021/12/06 02:04:05;;;;;;;0.40;0.40;;;;;;;-9.18;71.54;98173.09;6244328;23;20012;-78
2021/12/06 02:06:31;;;;;;;0.50;0.50;;;;;;;-9.20;71.64;98175.88;6244982;23;20142;-79
2021/12/06 02:08:57;;;;;;;0.50;0.50;;;;;;;-9.14;71.44;98179.88;6245339;23;20058;-79
2021/12/06 02:11:25;;;;;;;0.47;0.47;;;;;;;-9.11;71.48;98181.41;6246574;23;20515;-79
2021/12/06 02:14:17;;;;;;;1.20;0.70;;;;;;;-9.03;71.09;98179.81;6248798;23;20008;-83
2021/12/06 02:16:58;;;;;;;0.50;0.50;;;;;;;-9.03;70.96;98182.47;6221728;23;20011;-75
2021/12/06 02:19:31;;;;;;;0.55;0.55;;;;;;;-9.18;71.19;98173.94;6248623;23;20099;-78
2021/12/06 02:21:59;;;;;;;0.63;0.63;;;;;;;-9.30;71.39;98192.69;6246879;23;20409;-78
2021/12/06 02:24:25;;;;;;;0.40;0.40;;;;;;;-9.34;71.45;98197.44;6246714;23;20003;-78
2021/12/06 02:26:53;;;;;;;0.73;0.73;;;;;;;-9.44;71.76;98202.63;6219874;23;20080;-76
2021/12/06 02:29:19;;;;;;;0.40;0.40;;;;;;;-9.58;71.92;98200.28;6246440;23;20024;-77
2021/12/06 02:31:46;;;;;;;0.40;0.40;;;;;;;-9.77;72.14;98198.22;6245964;23;20043;-75
2021/12/06 02:34:12;;;;;;;0.47;0.47;;;;;;;-9.95;72.27;98205.81;6246675;23;20019;-76
2021/12/06 02:36:38;;;;;;;2.50;0.68;;;;;;;-10.06;72.54;98202.19;6246662;23;20068;-76
2021/12/06 02:39:09;;;;;;;0.57;0.57;;;;;;;-10.17;72.31;98214.63;6246330;23;20054;-76
2021/12/06 02:41:35;;;;;;;0.45;0.45;;;;;;;-10.33;72.46;98205.19;6247599;23;20008;-76
2021/12/06 02:44:01;;;;;;;0.55;0.55;;;;;;;-10.46;72.86;98205.31;6247655;23;20008;-75
2021/12/06 02:46:27;;;;;;;0.43;0.43;;;;;;;-10.45;72.94;98211.44;6246920;23;20131;-76
2021/12/06 02:48:53;;;;;;;0.40;0.40;;;;;;;-10.42;72.62;98206.78;6248457;23;20016;-76
2021/12/06 02:51:19;;;;;;;0.60;0.60;;;;;;;-10.44;72.48;98208.69;6245700;23;20575;-77
2021/12/06 02:53:46;;;;;;;0.60;0.60;;;;;;;-10.50;72.24;98213.63;6246931;23;20323;-75
2021/12/06 02:59:09;;;;;;;0.40;0.40;;;;;;;-10.46;72.11;98228.38;6223022;23;20000;-75
2021/12/06 03:01:44;;;;;;;1.17;0.47;;;;;;;-10.49;72.05;98228.59;6244987;23;20020;-76
2021/12/06 03:04:10;;;;;;;0.40;0.40;;;;;;;-10.63;72.20;98233.16;6245092;23;20095;-76
2021/12/06 03:06:37;;;;;;;0.40;0.40;;;;;;;-10.73;72.12;98232.16;6245867;23;20095;-75
2021/12/06 03:09:16;;;;;;;0.40;0.40;;;;;;;-10.72;72.30;98231.16;6218470;23;20066;-78
2021/12/06 03:11:47;;;;;;;1.08;0.65;;;;;;;-10.68;72.00;98229.97;6168949;23;20019;-78
2021/12/06 03:14:23;;;;;;;0.40;0.40;;;;;;;-10.59;71.83;98239.88;6245065;23;20095;-76
2021/12/06 03:16:49;;;;;;;0.60;0.60;;;;;;;-10.60;71.66;98230.25;6245522;23;20008;-82
2021/12/06 03:19:15;;;;;;;0.60;0.60;;;;;;;-10.60;71.42;98240.88;6246808;23;20018;-85
2021/12/06 03:21:41;;;;;;;0.38;0.38;;;;;;;-10.66;71.46;98246.59;6249187;23;20051;-81
2021/12/06 03:24:07;;;;;;;0.52;0.52;;;;;;;-10.75;71.26;98248.19;6250641;23;20019;-81
2021/12/06 03:26:34;;;;;;;0.50;0.50;;;;;;;-10.80;71.86;98249.47;6254774;23;20384;-82
2021/12/06 03:29:00;;;;;;;1.25;1.25;;;;;;;-10.80;71.59;98246.81;6254718;23;20023;-80
2021/12/06 03:31:27;;;;;;;8.45;1.25;;;;;;;-10.83;71.56;98255.00;6259050;23;20080;-84
2021/12/06 03:33:55;;;;;;;0.70;0.70;;;;;;;-10.82;71.50;98251.38;6272794;23;20012;-85
2021/12/06 03:36:23;;;;;;;0.70;0.70;;;;;;;-10.89;71.41;98263.38;6271545;22;20115;-81
2021/12/06 03:38:51;;;;;;;0.40;0.40;;;;;;;-11.11;71.64;98262.34;6258425;23;20012;-78
2021/12/06 03:41:19;;;;;;;0.63;0.63;;;;;;;-11.28;71.80;98258.25;6245605;23;20078;-79
2021/12/06 03:43:45;;;;;;;0.73;0.73;;;;;;;-11.41;72.06;98265.38;6245400;23;20019;-79
2021/12/06 03:46:14;;;;;;;0.80;0.80;;;;;;;-11.55;72.25;98266.38;6246078;23;20077;-79
2021/12/06 03:48:40;;;;;;;3.83;0.80;;;;;;;-11.71;72.36;98270.09;6246438;23;20032;-78
2021/12/06 03:51:06;;;;;;;3.20;0.77;;;;;;;-11.85;72.62;98276.38;6246006;23;20022;-79
2021/12/06 03:53:32;;;;;;;1.33;1.25;;;;;;;-11.91;72.64;98289.19;6246147;23;20012;-80
2021/12/06 03:55:59;;;;;;;1.00;1.00;;;;;;;-12.04;72.43;98295.38;6246814;23;20008;-81
2021/12/06 03:58:25;;;;;;;1.10;0.82;;;;;;;-12.23;72.45;98292.25;6246789;23;20092;-82
2021/12/06 04:00:51;;;;;;;0.88;0.88;;;;;;;-12.43;72.63;98302.41;6246643;23;20390;-82
2021/12/06 04:03:20;;;;;;;2.72;1.08;;;;;;;-12.66;72.95;98303.09;6246127;23;20028;-81
2021/12/06 04:05:47;;;;;;;0.68;0.68;;;;;;;-12.77;72.89;98302.00;6245389;23;20012;-80
2021/12/06 04:08:13;;;;;;;0.75;0.75;;;;;;;-12.86;72.91;98311.38;6246787;23;20008;-80
2021/12/06 04:10:39;;;;;;;2.60;1.48;;;;;;;-12.94;72.69;98315.47;6248036;23;20333;-82
2021/12/06 04:13:05;;;;;;;3.13;1.05;;;;;;;-12.91;72.92;98321.44;6247294;23;20437;-81
2021/12/06 04:15:31;;;;;;;2.15;1.10;;;;;;;-12.90;72.36;98312.53;6244815;23;20015;-80
2021/12/06 04:17:58;;;;;;;2.53;1.20;;;;;;;-12.96;72.21;98322.66;6245797;23;20086;-81
2021/12/06 04:20:25;;;;;;;0.75;0.75;;;;;;;-13.00;72.20;98318.53;6247410;23;20012;-84
2021/12/06 04:22:51;;;;;;;4.13;1.30;;;;;;;-13.02;71.87;98317.78;6245703;23;20012;-79
2021/12/06 04:25:18;;;;;;;2.88;1.75;;;;;;;-13.14;71.65;98324.69;6245016;23;20069;-82
2021/12/06 04:27:52;;;;;;;4.35;2.58;;;;;;;-13.22;71.58;98327.81;6245083;23;20008;-83
2021/12/06 04:30:18;;;;;;;2.08;0.90;;;;;;;-13.30;71.64;98314.25;6246803;23;20409;-83
2021/12/06 04:32:45;;;;;;;2.13;1.92;;;;;;;-13.31;71.78;98323.94;6246898;23;20087;-80
2021/12/06 04:35:11;;;;;;;3.33;2.03;;;;;;;-13.36;71.57;98330.53;6246040;23;20330;-80
2021/12/06 04:37:37;;;;;;;3.55;2.22;;;;;;;-13.47;71.48;98331.19;6245020;23;20019;-77
2021/12/06 04:40:04;;;;;;;3.95;3.55;;;;;;;-13.52;71.84;98336.75;6243816;23;20070;-63
2021/12/06 04:42:31;;;;;;;2.78;2.00;;;;;;;-13.44;71.58;98342.41;6243968;23;20345;-65
2021/12/06 04:44:57;;;;;;;3.10;2.42;;;;;;;-13.41;71.22;98354.56;6243835;23;20008;-72
2021/12/06 04:47:23;;;;;;;9.10;1.77;;;;;;;-13.48;71.38;98348.84;6244312;23;20114;-74
2021/12/06 04:49:48;;;;;;;15.07;3.15;;;;;;;-13.52;71.26;98370.25;6244473;23;20055;-79
2021/12/06 04:52:16;;;;;;;3.40;2.53;;;;;;;-13.52;71.38;98357.03;6244595;23;20073;-80
2021/12/06 04:54:46;;;;;;;3.63;2.17;;;;;;;-13.59;70.96;98361.84;6247280;23;20019;-86
2021/12/06 04:57:34;;;;;;;9.70;2.75;;;;;;;-13.71;70.97;98357.31;6249458;23;20034;-88
2021/12/06 05:00:05;;;;;;;12.07;4.78;;;;;;;-13.80;70.93;98372.78;6250407;23;20404;-87
2021/12/06 05:02:36;;;;;;;6.07;3.58;;;;;;;-13.83;70.91;98367.69;6248825;23;20008;-86
2021/12/06 05:05:09;;;;;;;8.60;4.43;;;;;;;-13.83;70.60;98372.94;6224202;23;20012;-86
2021/12/06 05:07:41;;;;;;;12.05;3.15;;;;;;;-13.87;70.56;98370.59;6255154;23;20008;-81
2021/12/06 05:10:10;;;;;;;6.88;3.90;;;;;;;-13.91;70.71;98375.22;6221201;23;20062;-86
2021/12/06 05:12:36;;;;;;;6.25;2.25;;;;;;;-13.86;70.37;98394.25;6249038;23;20008;-87
2021/12/06 05:15:05;;;;;;;8.15;2.65;;;;;;;-13.78;70.17;98384.09;6248799;23;20012;-83
2021/12/06 05:17:30;;;;;;;5.53;3.63;;;;;;;-13.75;70.08;98398.88;6250581;23;20008;-89
2021/12/06 05:19:56;;;;;;;4.55;2.08;;;;;;;-13.81;69.58;98392.19;6254173;23;20008;-85
2021/12/06 05:22:24;;;;;;;8.63;2.30;;;;;;;-13.89;70.07;98402.38;6251520;23;20008;-85
2021/12/06 05:24:50;;;;;;;2.42;1.95;;;;;;;-13.97;69.96;98399.31;6250612;23;20403;-83
2021/12/06 05:27:19;;;;;;;2.03;1.83;;;;;;;-13.95;70.11;98400.09;6247962;23;20078;-84
2021/12/06 05:29:51;;;;;;;1.58;1.48;;;;;;;-13.90;69.80;98400.66;6252254;23;20436;-88
2021/12/06 05:32:17;;;;;;;5.13;1.40;;;;;;;-13.91;69.93;98404.25;6250411;23;20054;-84
2021/12/06 05:34:44;;;;;;;4.50;1.45;;;;;;;-13.92;70.03;98410.47;6250201;23;20040;-85
2021/12/06 05:37:13;;;;;;;1.98;1.48;;;;;;;-13.89;69.55;98409.44;6251285;23;20008;-85
2021/12/06 05:39:39;;;;;;;1.50;1.40;;;;;;;-13.97;69.96;98407.22;6251898;23;20096;-83
2021/12/06 05:42:08;;;;;;;5.70;1.85;;;;;;;-13.98;69.92;98403.75;6251420;23;20028;-85
2021/12/06 05:44:35;;;;;;;1.60;1.08;;;;;;;-13.97;69.96;98407.22;6249861;23;20015;-86
2021/12/06 05:47:01;;;;;;;3.83;1.58;;;;;;;-13.97;69.54;98415.16;6252503;23;20433;-85
2021/12/06 05:49:28;;;;;;;2.38;1.50;;;;;;;-13.95;69.70;98418.56;6272509;22;20000;-85
2021/12/06 05:51:54;;;;;;;0.93;0.90;;;;;;;-13.91;69.49;98425.38;6274138;22;20003;-86
2021/12/06 05:54:20;;;;;;;5.68;1.15;;;;;;;-13.88;69.38;98419.03;6274089;22;20031;-84
2021/12/06 05:56:47;;;;;;;1.98;1.73;;;;;;;-13.84;69.44;98418.75;6272708;23;20050;-84
2021/12/06 05:59:14;;;;;;;3.92;1.88;;;;;;;-13.84;69.14;98421.41;6272733;23;19992;-85
2021/12/06 06:01:40;;;;;;;2.00;1.20;;;;;;;-13.86;69.27;98433.84;6271584;23;20008;-84
2021/12/06 06:04:06;;;;;;;4.35;1.08;;;;;;;-13.90;69.02;98428.84;6272358;23;20142;-84
2021/12/06 06:06:34;;;;;;;1.67;1.17;;;;;;;-13.94;69.48;98431.66;6270797;23;20022;-83
2021/12/06 06:09:02;;;;;;;3.60;1.33;;;;;;;-13.97;69.30;98429.22;6255156;23;20058;-83
2021/12/06 06:11:28;;;;;;;0.70;0.70;;;;;;;-14.01;69.10;98434.75;6249948;23;20016;-81
2021/12/06 06:13:55;;;;;;;0.95;0.95;;;;;;;-14.07;69.27;98430.69;6248342;23;20020;-85
2021/12/06 06:16:22;;;;;;;2.58;0.90;;;;;;;-14.06;69.34;98440.28;6220677;23;20012;-82
2021/12/06 06:18:50;;;;;;;0.95;0.95;;;;;;;-13.96;68.94;98440.59;6247436;23;20008;-83
2021/12/06 06:21:17;;;;;;;1.42;1.33;;;;;;;-13.92;68.73;98445.59;6246992;23;20008;-82
2021/12/06 06:23:43;;;;;;;1.10;1.00;;;;;;;-13.90;68.65;98442.03;6247430;23;20008;-84
2021/12/06 06:26:09;;;;;;;0.52;0.52;;;;;;;-13.85;68.61;98432.91;6247300;23;20008;-82
2021/12/06 06:28:34;;;;;;;1.98;1.27;;;;;;;-13.85;68.55;98440.84;6247835;23;20008;-83
2021/12/06 06:31:01;;;;;;;1.42;1.05;;;;;;;-13.82;68.53;98447.69;6246576;23;20066;-81
2021/12/06 06:33:27;;;;;;;1.48;1.05;;;;;;;-13.80;68.34;98444.03;6247473;23;20023;-83
2021/12/06 06:35:53;;;;;;;3.38;1.55;;;;;;;-13.80;68.00;98446.66;6246588;23;20270;-80
2021/12/06 06:38:19;;;;;;;1.30;1.17;;;;;;;-13.86;68.19;98452.31;6247096;23;20058;-80
2021/12/06 06:40:46;;;;;;;2.58;1.42;;;;;;;-13.96;68.14;98433.53;6247595;23;20008;-82
2021/12/06 06:43:12;;;;;;;3.20;1.75;;;;;;;-14.04;68.42;98448.09;6249128;23;20011;-82
2021/12/06 06:45:38;;;;;;;7.88;1.80;;;;;;;-14.04;68.37;98450.75;6248205;23;20078;-82
2021/12/06 06:48:04;;;;;;;0.68;0.68;;;;;;;-14.06;68.62;98442.09;6247997;23;20008;-86
2021/12/06 06:50:30;;;;;;;0.60;0.60;;;;;;;-14.09;68.37;98443.09;6247405;23;20016;-80
2021/12/06 06:52:55;;;;;;;3.55;1.13;;;;;;;-14.08;68.68;98444.81;6246449;23;20015;-83
2021/12/06 06:55:22;;;;;;;0.98;0.80;;;;;;;-14.03;68.44;98444.53;6248906;23;20456;-80
2021/12/06 06:57:50;;;;;;;2.38;1.40;;;;;;;-13.99;68.30;98446.06;6249902;23;19998;-80
2021/12/06 07:00:20;;;;;;;1.10;1.08;;;;;;;-13.90;67.95;98439.41;6247122;23;20094;-82
2021/12/06 07:02:46;;;;;;;1.80;1.60;;;;;;;-13.83;68.08;98448.66;6246247;23;20054;-82
2021/12/06 07:05:12;;;;;;;1.42;1.02;;;;;;;-13.88;67.83;98434.88;6246413;23;20058;-82
2021/12/06 07:07:38;;;;;;;3.80;1.10;;;;;;;-13.84;68.21;98445.16;6247197;23;20012;-84
2021/12/06 07:10:06;;;;;;;5.07;1.65;;;;;;;-13.82;67.96;98443.28;6247520;23;20012;-82
2021/12/06 07:12:35;;;;;;;2.05;1.42;;;;;;;-13.76;68.28;98456.13;6247910;23;20054;-82
2021/12/06 07:15:01;;;;;;;1.35;1.25;;;;;;;-13.73;68.04;98451.59;6246420;23;20020;-81
2021/12/06 07:17:26;;;;;;;2.17;1.02;;;;;;;-13.72;68.24;98440.94;6248802;23;20027;-81
2021/12/06 07:19:52;;;;;;;2.05;1.35;;;;;;;-13.70;68.24;98446.13;6247973;23;20012;-81
2021/12/06 07:22:18;;;;;;;1.65;1.30;;;;;;;-13.66;67.96;98442.34;6247454;23;20016;-81
2021/12/06 07:24:44;;;;;;;2.22;1.48;;;;;;;-13.59;67.83;98448.97;6246935;23;20018;-81
2021/12/06 07:27:09;;;;;;;2.28;1.60;;;;;;;-13.58;67.71;98451.53;6247821;23;20050;-81
2021/12/06 07:29:36;;;;;;;0.70;0.70;;;;;;;-13.61;67.75;98456.16;6249248;23;20393;-83
2021/12/06 07:32:04;;;;;;;0.93;0.93;;;;;;;-13.75;67.94;98449.91;6247622;23;20023;-81
2021/12/06 07:34:30;;;;;;;1.55;1.02;;;;;;;-13.86;68.35;98462.88;6248073;23;20087;-81
2021/12/06 07:36:57;;;;;;;1.15;0.90;;;;;;;-13.88;68.27;98456.84;6248397;23;20035;-86
2021/12/06 07:39:22;;;;;;;1.40;1.30;;;;;;;-13.83;67.82;98451.31;6246385;23;20042;-81
2021/12/06 07:41:48;;;;;;;1.83;0.90;;;;;;;-13.89;67.83;98460.44;6248055;23;20008;-82
2021/12/06 07:44:14;;;;;;;0.70;0.70;;;;;;;-13.97;67.80;98457.38;6248921;23;20019;-84
2021/12/06 07:46:40;;;;;;;0.70;0.70;;;;;;;-13.93;68.02;98456.25;6252506;23;20008;-82
2021/12/06 07:49:06;;;;;;;0.90;0.73;;;;;;;-13.91;67.97;98464.97;6251710;23;20008;-86
2021/12/06 07:51:31;;;;;;;1.98;1.65;;;;;;;-13.94;67.81;98473.03;6254536;23;20018;-86
2021/12/06 07:53:58;;;;;;;2.50;1.45;;;;;;;-13.92;67.94;98465.88;6252107;23;20395;-81
2021/12/06 07:56:25;;;;;;;3.28;1.95;;;;;;;-13.87;67.81;98471.72;6250734;23;20016;-78
2021/12/06 07:58:50;;;;;;;1.33;1.23;;;;;;;-13.79;67.54;98472.13;6248134;23;20345;-84
2021/12/06 08:01:17;;;;;;;1.88;1.58;;;;;;;-13.69;67.31;98482.16;6246923;23;20012;-83
2021/12/06 08:03:43;;;;;;;1.27;1.17;;;;;;;-13.66;67.40;98468.75;6247898;23;20014;-83
2021/12/06 08:06:10;;;;;;;2.13;1.45;;;;;;;-13.65;67.44;98467.84;6248922;23;20012;-82
2021/12/06 08:08:40;;;;;;;0.68;0.68;;;;;;;-13.67;67.33;98469.72;6250248;23;20097;-78
2021/12/06 08:11:11;;;;;;;3.10;1.27;;;;;;;-13.64;67.46;98469.53;6249046;23;20039;-78
2021/12/06 08:13:39;;;;;;;1.38;1.27;;;;;;;-13.57;67.06;98468.22;6255272;23;20008;-79
2021/12/06 08:16:20;;;;;;;5.45;1.67;;;;;;;-13.51;67.00;98465.22;6261605;23;20015;-73
2021/12/06 08:18:47;;;;;;;4.30;1.80;;;;;;;-13.54;66.97;98465.41;6242315;23;20353;-83
2021/12/06 08:21:15;;;;;;;1.60;1.35;;;;;;;-13.59;67.06;98476.25;6249563;23;20321;-81
2021/12/06 08:23:41;;;;;;;1.60;0.88;;;;;;;-13.61;67.10;98478.13;6247243;23;20472;-80
2021/12/06 08:26:09;;;;;;;1.67;1.58;;;;;;;-13.62;67.08;98468.47;6247293;23;20091;-81
2021/12/06 08:28:36;;;;;;;1.35;0.93;;;;;;;-13.61;66.93;98478.13;6247296;23;20019;-82
2021/12/06 08:31:05;;;;;;;1.58;1.23;;;;;;;-13.65;67.16;98475.75;6246172;23;20059;-75
2021/12/06 08:33:31;;;;;;;1.60;1.50;;;;;;;-13.60;67.19;98476.31;6247309;23;20012;-79
2021/12/06 08:35:58;;;;;;;0.68;0.68;;;;;;;-13.59;66.99;98486.81;6246169;23;20087;-83
2021/12/06 08:38:30;;;;;;;0.65;0.65;;;;;;;-13.59;66.92;98486.81;6246366;23;20095;-81
2021/12/06 08:40:58;;;;;;;0.85;0.85;;;;;;;-13.55;66.98;98490.09;6246495;23;20492;-79
2021/12/06 08:43:24;;;;;;;6.55;2.13;;;;;;;-13.56;66.85;98480.47;6246616;23;20008;-80
2021/12/06 08:46:06;;;;;;;1.13;1.05;;;;;;;-13.60;66.79;98481.59;6250081;23;20344;-79
2021/12/06 08:48:34;;;;;;;2.05;1.25;;;;;;;-13.69;66.90;98482.16;6246843;23;20008;-80
2021/12/06 08:51:04;;;;;;;1.33;1.23;;;;;;;-13.61;66.88;98491.31;6248519;23;20012;-81
2021/12/06 08:53:30;;;;;;;0.93;0.93;;;;;;;-13.63;66.57;98487.94;6227281;23;20011;-82
2021/12/06 08:55:57;;;;;;;0.88;0.88;;;;;;;-13.69;66.79;98492.72;6252251;23;20012;-78
2021/12/06 08:58:23;;;;;;;6.88;1.25;;;;;;;-13.76;66.68;98489.59;6249509;23;20015;-84
2021/12/06 09:00:52;;;;;;;0.90;0.90;;;;;;;-13.81;66.82;98489.84;6246615;23;20041;-80
2021/12/06 09:03:18;;;;;;;1.35;1.25;;;;;;;-13.82;67.09;98490.78;6247349;23;20012;-77
2021/12/06 09:05:47;;;;;;;1.63;1.08;;;;;;;-13.78;66.71;98494.09;6250012;23;20011;-78
2021/12/06 09:08:13;;;;;;;0.88;0.88;;;;;;;-13.76;66.46;98492.22;6249007;23;20015;-79
2021/12/06 09:10:40;;;;;;;1.75;1.38;;;;;;;-13.74;66.51;98492.97;6246326;23;20352;-78
2021/12/06 09:13:06;;;;;;;1.45;1.30;;;;;;;-13.72;66.37;98496.38;6245628;23;20077;-80
2021/12/06 09:15:32;;;;;;;1.77;1.35;;;;;;;-13.69;66.33;98503.25;6245100;23;20442;-81
2021/12/06 09:17:59;;;;;;;1.48;1.27;;;;;;;-13.67;66.27;98501.41;6243246;23;20463;-80
2021/12/06 09:20:34;;;;;;;5.35;1.15;;;;;;;-13.66;66.02;98500.44;6246812;23;20057;-83
2021/12/06 09:23:01;;;;;;;1.17;1.08;;;;;;;-13.65;66.23;98502.16;6247190;23;20016;-82
2021/12/06 09:25:28;;;;;;;2.80;1.30;;;;;;;-13.63;66.28;98508.19;6247494;23;20019;-83
2021/12/06 09:27:54;;;;;;;1.08;0.93;;;;;;;-13.64;66.30;98512.63;6247355;23;20007;-84
2021/12/06 09:30:24;;;;;;;1.33;1.23;;;;;;;-13.62;66.07;98517.81;6248024;23;20023;-83
2021/12/06 09:32:50;;;;;;;2.67;1.48;;;;;;;-13.63;66.11;98524.03;6249489;23;20018;-84
2021/12/06 09:35:22;;;;;;;2.70;1.02;;;;;;;-13.60;66.07;98531.75;6245955;23;20427;-85
2021/12/06 09:37:48;;;;;;;5.88;1.50;;;;;;;-13.61;65.78;98532.72;6248376;23;20452;-74
2021/12/06 09:40:15;;;;;;;0.70;0.70;;;;;;;-13.71;66.11;98531.56;6244430;23;20012;-83
2021/12/06 09:42:45;;;;;;;1.23;1.10;;;;;;;-13.79;66.07;98535.50;6247458;23;20069;-83
2021/12/06 09:45:18;;;;;;;1.05;0.95;;;;;;;-13.75;66.32;98534.38;6247374;23;20047;-80
2021/12/06 09:47:51;;;;;;;1.63;1.52;;;;;;;-13.80;66.22;98528.50;6254602;23;20042;-81
2021/12/06 09:50:24;;;;;;;3.15;1.60;;;;;;;-13.81;66.51;98537.34;6247283;23;20012;-80
2021/12/06 09:52:51;;;;;;;1.45;1.35;;;;;;;-13.78;66.21;98531.06;6247671;23;20020;-81
2021/12/06 09:55:19;;;;;;;3.38;1.27;;;;;;;-13.78;66.23;98538.97;6247417;23;20016;-80
2021/12/06 09:57:44;;;;;;;1.75;1.05;;;;;;;-13.79;66.20;98540.78;6249041;23;20058;-80
2021/12/06 10:00:13;;;;;;;1.35;1.25;;;;;;;-13.79;66.24;98540.78;6219718;23;20008;-81
2021/12/06 10:02:39;;;;;;;2.60;1.20;;;;;;;-13.75;66.05;98537.03;6247789;23;20012;-74
2021/12/06 10:05:05;;;;;;;2.53;1.80;;;;;;;-13.80;66.12;98544.34;6247096;23;20019;-85
2021/12/06 10:07:32;;;;;;;4.30;1.35;;;;;;;-13.82;66.14;98538.31;6246418;23;20012;-84
2021/12/06 10:09:58;;;;;;;6.63;1.50;;;;;;;-13.84;66.21;98534.06;6241195;23;20008;-82
2021/12/06 10:12:27;;;;;;;0.90;0.85;;;;;;;-13.87;66.07;98543.00;6243165;23;20387;-82
2021/12/06 10:14:55;;;;;;;0.88;0.88;;;;;;;-13.88;65.87;98549.22;6243104;23;20019;-82
2021/12/06 10:17:21;;;;;;;2.15;1.45;;;;;;;-13.92;65.83;98542.41;6216772;23;20015;-83
2021/12/06 10:19:48;;;;;;;1.55;1.10;;;;;;;-13.97;66.16;98555.00;6243897;23;20008;-81
2021/12/06 10:22:15;;;;;;;1.60;1.08;;;;;;;-14.00;66.23;98563.09;6243610;23;20091;-81
2021/12/06 10:24:49;;;;;;;1.13;1.08;;;;;;;-14.01;66.06;98558.78;6243058;23;20092;-82
2021/12/06 10:27:15;;;;;;;1.65;1.00;;;;;;;-14.04;65.87;98553.66;6243162;23;20422;-81
2021/12/06 10:29:52;;;;;;;1.25;1.08;;;;;;;-14.08;66.08;98552.16;6243364;23;20020;-83
2021/12/06 10:32:24;;;;;;;1.00;0.90;;;;;;;-14.11;66.17;98554.00;6243908;23;20012;-80
2021/12/06 10:34:54;;;;;;;2.70;0.90;;;;;;;-14.12;66.01;98565.50;6245374;23;20015;-81
2021/12/06 10:37:54;;;;;;;0.95;0.95;;;;;;;-14.12;66.06;98565.50;6220708;23;20036;-81
2021/12/06 10:40:32;;;;;;;1.58;1.48;;;;;;;-14.08;65.96;98565.34;6247352;23;20008;-80
2021/12/06 10:43:03;;;;;;;1.73;1.63;;;;;;;-14.04;65.77;98567.72;6244912;23;20091;-80
2021/12/06 10:45:34;;;;;;;2.22;1.38;;;;;;;-14.08;65.70;98565.34;6246116;23;20030;-84
2021/12/06 10:48:08;;;;;;;3.70;1.15;;;;;;;-14.11;65.95;98559.28;6246885;23;20012;-78
2021/12/06 10:50:36;;;;;;;0.77;0.77;;;;;;;-14.12;65.64;98559.38;6245843;23;20043;-79
2021/12/06 10:53:04;;;;;;;1.75;1.65;;;;;;;-14.13;65.85;98561.16;6249694;23;20087;-81
2021/12/06 10:55:35;;;;;;;1.42;1.33;;;;;;;-14.13;65.91;98555.88;6248959;23;20008;-83
2021/12/06 10:58:04;;;;;;;1.15;1.05;;;;;;;-14.17;65.90;98564.91;6226654;23;20018;-77
2021/12/06 11:00:42;;;;;;;1.70;1.60;;;;;;;-14.18;66.12;98565.84;6244149;23;20401;-81
2021/12/06 11:03:20;;;;;;;1.50;1.35;;;;;;;-14.18;65.94;98571.09;6245212;23;20405;-80
2021/12/06 11:05:50;;;;;;;5.18;2.22;;;;;;;-14.19;66.00;98579.09;6247157;23;20074;-81
2021/12/06 11:08:18;;;;;;;1.80;1.70;;;;;;;-14.23;66.27;98572.28;6245321;23;20012;-79
2021/12/06 11:10:48;;;;;;;3.30;1.40;;;;;;;-14.24;66.19;98575.88;6246464;23;20044;-81
2021/12/06 11:13:25;;;;;;;1.38;1.00;;;;;;;-14.30;66.45;98582.34;6248088;23;20042;-80
2021/12/06 11:16:10;;;;;;;1.08;1.08;;;;;;;-14.36;66.38;98585.34;6246685;23;20073;-84
2021/12/06 11:18:58;;;;;;;12.63;1.30;;;;;;;-14.40;66.22;98587.25;6244475;23;20448;-81
2021/12/06 11:21:34;;;;;;;1.00;1.00;;;;;;;-14.42;66.71;98594.41;6244140;23;20026;-80
2021/12/06 11:24:06;;;;;;;0.88;0.88;;;;;;;-14.44;66.05;98591.00;6244242;23;20061;-82
2021/12/06 11:26:47;;;;;;;1.20;1.10;;;;;;;-14.42;66.68;98593.59;6218073;23;20563;-82
2021/12/06 11:29:21;;;;;;;1.02;1.02;;;;;;;-14.44;66.51;98593.63;6243356;23;20023;-82
2021/12/06 11:32:01;;;;;;;1.05;0.93;;;;;;;-14.47;66.30;98605.22;6243648;23;20103;-82
2021/12/06 11:34:30;;;;;;;2.45;1.00;;;;;;;-14.45;66.92;98600.72;6244754;23;20036;-83
2021/12/06 11:36:57;;;;;;;1.17;1.17;;;;;;;-14.47;66.40;98597.31;6218105;23;20023;-78
2021/12/06 11:39:24;;;;;;;0.98;0.98;;;;;;;-14.48;66.53;98606.16;6245261;23;20015;-81
2021/12/06 11:41:54;;;;;;;0.68;0.68;;;;;;;-14.51;66.65;98606.31;6245952;23;20039;-81
2021/12/06 11:44:38;;;;;;;1.08;0.80;;;;;;;-14.54;66.48;98614.41;6245678;23;20345;-82
2021/12/06 11:47:07;;;;;;;1.52;1.42;;;;;;;-14.61;66.47;98613.06;6246835;23;20040;-82